Time;durP1;ratioP1;P1;durP2;ratioP2;P2;SDS_P1;SDS_P2;PMS_P1;PMS_P2;Temp;Humidity;BMP_temperature;BMP_pressure;BME280_temperature;BME280_humidity;BME280_pressure;Samples;Min_cycle;Max_cycle;Signal;HPM_P1;HPM_P2
2024/02/17 00:02:03;;;;;;;9.30;1.75;;;;;;;25.28;42.48;100583.75;7395783;19;20026;-54
2024/02/17 00:04:30;;;;;;;2.30;1.23;;;;;;;23.61;45.66;100592.69;7394304;19;20455;-54
2024/02/17 00:06:56;;;;;;;5.50;1.00;;;;;;;23.03;48.44;100600.53;7393682;19;20014;-54
2024/02/17 00:09:22;;;;;;;2.92;1.33;;;;;;;23.38;47.21;100602.22;7396495;19;20047;-54
2024/02/17 00:11:48;;;;;;;0.55;0.30;;;;;;;24.02;45.89;100609.91;7392271;19;20387;-54
2024/02/17 00:14:14;;;;;;;3.17;1.52;;;;;;;23.21;48.20;100616.72;7395441;19;20047;-54
2024/02/17 00:16:43;;;;;;;2.63;0.73;;;;;;;22.61;49.72;100622.94;7391686;19;20006;-54
2024/02/17 00:19:09;;;;;;;1.38;0.70;;;;;;;22.33;54.37;100618.97;7390246;19;20031;-54
2024/02/17 00:21:36;;;;;;;7.55;1.33;;;;;;;21.96;55.40;100636.03;7395743;19;20011;-54
2024/02/17 00:24:02;;;;;;;3.60;1.35;;;;;;;21.09;64.42;100635.16;7392847;19;20482;-54
2024/02/17 00:26:28;;;;;;;0.80;0.50;;;;;;;21.99;60.35;100629.25;7391776;19;20022;-54
2024/02/17 00:28:54;;;;;;;4.78;0.50;;;;;;;22.95;54.91;100630.91;7392546;19;20010;-54
2024/02/17 00:31:20;;;;;;;1.30;0.28;;;;;;;22.41;56.57;100636.91;7392532;19;20034;-54
2024/02/17 00:33:46;;;;;;;1.75;0.60;;;;;;;22.19;58.49;100638.00;7393174;19;20015;-54
2024/02/17 00:36:12;;;;;;;1.20;1.02;;;;;;;22.56;57.55;100635.13;7396413;19;20347;-54
2024/02/17 00:38:38;;;;;;;1.42;0.95;;;;;;;21.97;60.99;100632.63;7392473;19;20062;-54
2024/02/17 00:41:06;;;;;;;8.35;0.75;;;;;;;21.09;66.37;100635.16;7390515;19;20011;-54
2024/02/17 00:43:33;;;;;;;3.72;0.32;;;;;;;20.34;73.27;100636.00;7392593;19;20019;-54
2024/02/17 00:46:00;;;;;;;1.23;0.38;;;;;;;20.77;71.83;100634.13;7393681;19;20026;-54
2024/02/17 00:48:26;;;;;;;7.22;0.95;;;;;;;20.30;75.61;100638.34;7390023;19;20035;-54
2024/02/17 00:50:52;;;;;;;0.98;0.88;;;;;;;20.47;75.88;100641.06;7395085;19;20470;-54
2024/02/17 00:53:19;;;;;;;2.95;0.63;;;;;;;20.25;77.10;100641.97;7392085;19;20025;-54
2024/02/17 00:55:45;;;;;;;1.38;0.75;;;;;;;20.25;77.91;100636.31;7393774;19;20011;-54
2024/02/17 00:58:11;;;;;;;1.52;0.45;;;;;;;20.38;74.51;100633.66;7394679;19;20013;-55
2024/02/17 01:00:37;;;;;;;7.82;0.73;;;;;;;23.10;59.65;100631.16;7397165;19;20014;-54
2024/02/17 01:03:07;;;;;;;2.78;0.57;;;;;;;23.72;54.70;100632.28;7399934;19;20014;-54
2024/02/17 01:05:33;;;;;;;1.60;0.28;;;;;;;25.10;49.66;100619.75;7398460;19;20022;-54
2024/02/17 01:07:59;;;;;;;0.40;0.40;;;;;;;25.49;47.57;100633.72;7402169;19;20015;-54
2024/02/17 01:10:25;;;;;;;0.32;0.30;;;;;;;25.36;46.68;100630.94;7399082;19;20097;-54
2024/02/17 01:12:51;;;;;;;4.40;1.65;;;;;;;23.60;49.17;100630.22;7399483;19;20390;-54
2024/02/17 01:15:17;;;;;;;2.95;0.90;;;;;;;23.59;48.65;100631.50;7399121;19;20014;-54
2024/02/17 01:17:44;;;;;;;3.15;0.93;;;;;;;24.49;47.04;100620.50;7396919;19;20017;-54
2024/02/17 01:20:10;;;;;;;0.90;0.52;;;;;;;24.37;46.84;100617.16;7398683;19;20021;-54
2024/02/17 01:22:37;;;;;;;0.40;0.30;;;;;;;24.71;45.49;100619.97;7397085;19;20427;-54
2024/02/17 01:25:03;;;;;;;1.65;0.45;;;;;;;24.84;44.15;100622.75;7398079;19;20011;-54
2024/02/17 01:27:29;;;;;;;0.15;0.15;;;;;;;25.22;43.36;100625.91;7399548;19;20011;-54
2024/02/17 01:29:55;;;;;;;0.13;0.13;;;;;;;25.03;42.78;100631.88;7398341;19;20033;-54
2024/02/17 01:32:22;;;;;;;0.93;0.43;;;;;;;25.11;42.54;100626.97;7400725;19;20065;-54
2024/02/17 01:34:48;;;;;;;1.63;1.00;;;;;;;24.92;42.47;100628.53;7399095;19;20078;-54
2024/02/17 01:37:14;;;;;;;1.75;0.68;;;;;;;25.00;42.04;100637.91;7398396;19;20018;-54
2024/02/17 01:39:40;;;;;;;2.17;0.52;;;;;;;24.30;42.56;100642.72;7396678;19;20471;-54
2024/02/17 01:42:07;;;;;;;0.25;0.17;;;;;;;21.99;46.09;100641.38;7397699;19;20011;-54
2024/02/17 01:44:33;;;;;;;1.58;0.20;;;;;;;20.47;49.44;100653.16;7399532;19;20455;-54
2024/02/17 01:46:59;;;;;;;1.65;0.20;;;;;;;20.30;50.42;100655.34;7396116;19;20007;-54
2024/02/17 01:49:26;;;;;;;6.85;0.95;;;;;;;20.65;50.30;100646.09;7398064;19;20010;-54
2024/02/17 01:51:53;;;;;;;0.25;0.25;;;;;;;21.16;49.18;100655.72;7395866;19;20006;-54
2024/02/17 01:54:19;;;;;;;1.27;1.17;;;;;;;21.81;47.44;100650.59;7398106;19;20466;-54
2024/02/17 01:56:46;;;;;;;4.00;0.73;;;;;;;21.20;48.44;100656.19;7396996;19;20010;-54
2024/02/17 01:59:13;;;;;;;0.65;0.52;;;;;;;20.62;49.64;100658.47;7395852;19;20010;-54
2024/02/17 02:01:43;;;;;;;0.30;0.30;;;;;;;20.87;49.19;100655.19;7394675;19;20010;-54
2024/02/17 02:04:13;;;;;;;2.70;0.65;;;;;;;20.74;50.05;100655.03;7400470;19;20412;-54
2024/02/17 02:06:39;;;;;;;1.67;0.85;;;;;;;20.85;49.20;100654.94;7396429;19;20350;-54
2024/02/17 02:09:06;;;;;;;0.57;0.43;;;;;;;20.45;49.94;100652.91;7398668;19;20015;-54
2024/02/17 02:11:33;;;;;;;0.10;0.10;;;;;;;20.26;50.76;100655.63;7392134;19;20018;-54
2024/02/17 02:14:19;;;;;;;0.65;0.47;;;;;;;19.94;51.84;100654.47;7394772;19;20014;-54
2024/02/17 02:16:49;;;;;;;1.48;0.98;;;;;;;20.38;51.20;100656.28;7392564;19;20029;-54
2024/02/17 02:19:16;;;;;;;0.68;0.68;;;;;;;20.31;51.33;100656.88;7394623;19;20011;-54
2024/02/17 02:21:43;;;;;;;0.20;0.20;;;;;;;20.24;52.40;100660.25;7393201;19;20033;-54
2024/02/17 02:24:10;;;;;;;0.10;0.10;;;;;;;20.33;52.80;100651.47;7395824;19;20035;-55
2024/02/17 02:26:36;;;;;;;0.35;0.20;;;;;;;20.38;52.91;100651.41;7394826;19;20478;-54
2024/02/17 02:29:03;;;;;;;0.30;0.30;;;;;;;20.73;52.98;100653.47;7396040;19;20049;-55
2024/02/17 02:31:29;;;;;;;5.25;0.50;;;;;;;20.52;54.57;100648.75;7396632;19;20505;-54
2024/02/17 02:33:57;;;;;;;0.22;0.22;;;;;;;20.69;53.91;100652.22;7398205;19;20014;-54
2024/02/17 02:36:23;;;;;;;1.35;0.75;;;;;;;20.18;55.73;100640.44;7395039;19;20363;-54
2024/02/17 02:38:51;;;;;;;0.10;0.10;;;;;;;18.73;64.20;100652.66;7395513;19;20387;-54
2024/02/17 02:41:17;;;;;;;0.57;0.20;;;;;;;19.30;62.22;100655.69;7395364;19;20018;-54
2024/02/17 02:43:44;;;;;;;2.85;0.20;;;;;;;19.15;64.47;100646.72;7397453;19;20015;-54
2024/02/17 02:46:11;;;;;;;0.10;0.10;;;;;;;20.15;60.10;100640.72;7396119;19;20010;-54
2024/02/17 02:48:37;;;;;;;1.27;0.30;;;;;;;19.55;61.46;100651.81;7396439;19;20014;-54
2024/02/17 02:51:03;;;;;;;0.82;0.55;;;;;;;19.26;63.79;100655.19;7398782;19;20011;-54
2024/02/17 02:53:29;;;;;;;0.10;0.10;;;;;;;19.34;64.47;100659.03;7398080;19;20093;-55
2024/02/17 02:55:56;;;;;;;2.92;0.20;;;;;;;20.05;61.09;100656.47;7394745;19;20017;-54
2024/02/17 02:58:22;;;;;;;1.45;0.35;;;;;;;19.59;65.88;100663.59;7396012;19;20017;-54
2024/02/17 03:00:49;;;;;;;0.65;0.15;;;;;;;20.99;62.37;100670.75;7394294;19;20015;-54
2024/02/17 03:03:16;;;;;;;0.22;0.22;;;;;;;20.47;62.00;100675.03;7396894;19;20055;-54
2024/02/17 03:05:42;;;;;;;0.47;0.25;;;;;;;21.50;59.98;100673.91;7395498;19;20011;-54
2024/02/17 03:08:08;;;;;;;2.83;0.47;;;;;;;21.31;60.39;100673.09;7397051;19;20017;-54
2024/02/17 03:10:34;;;;;;;1.30;1.05;;;;;;;22.01;57.66;100655.78;7394729;19;20011;-55
2024/02/17 03:13:00;;;;;;;0.75;0.50;;;;;;;22.25;57.31;100658.56;7396343;19;20014;-54
2024/02/17 03:15:27;;;;;;;1.05;0.50;;;;;;;22.67;56.12;100661.84;7392138;19;20473;-54
2024/02/17 03:17:53;;;;;;;0.10;0.10;;;;;;;23.03;54.95;100651.66;7394468;19;20019;-54
2024/02/17 03:20:20;;;;;;;1.98;0.90;;;;;;;22.89;54.67;100658.66;7396242;19;20010;-54
2024/02/17 03:22:46;;;;;;;2.65;1.45;;;;;;;23.13;54.63;100661.31;7393533;19;20074;-54
2024/02/17 03:25:13;;;;;;;0.73;0.65;;;;;;;23.44;53.39;100659.72;7395515;19;20014;-54
2024/02/17 03:27:39;;;;;;;0.45;0.20;;;;;;;23.27;53.35;100662.88;7395049;19;20047;-54
2024/02/17 03:30:06;;;;;;;2.10;0.57;;;;;;;23.11;54.16;100663.91;7393164;19;20010;-54
2024/02/17 03:32:33;;;;;;;3.20;0.75;;;;;;;23.16;54.08;100665.91;7392599;19;20052;-54
2024/02/17 03:35:01;;;;;;;1.27;0.55;;;;;;;23.38;53.38;100664.75;7395296;19;20014;-54
2024/02/17 03:37:27;;;;;;;0.10;0.10;;;;;;;23.22;53.48;100675.88;7393876;19;20086;-54
2024/02/17 03:39:54;;;;;;;0.63;0.30;;;;;;;22.97;54.80;100670.91;7393492;19;20007;-54
2024/02/17 03:42:20;;;;;;;0.40;0.10;;;;;;;22.95;54.98;100679.19;7394807;19;20036;-54
2024/02/17 03:44:46;;;;;;;0.32;0.20;;;;;;;22.96;54.93;100675.03;7394082;19;20011;-54
2024/02/17 03:47:12;;;;;;;1.02;0.45;;;;;;;23.28;54.45;100678.63;7394234;19;20394;-54
2024/02/17 03:49:39;;;;;;;0.68;0.47;;;;;;;25.43;49.42;100675.91;7394400;19;20045;-54
2024/02/17 03:52:05;;;;;;;0.10;0.10;;;;;;;25.77;48.00;100680.69;7392285;19;20006;-54
2024/02/17 03:54:31;;;;;;;0.50;0.40;;;;;;;24.61;48.57;100693.75;7396573;19;20037;-54
2024/02/17 03:56:58;;;;;;;0.32;0.10;;;;;;;23.61;51.95;100695.06;7393672;19;20015;-54
2024/02/17 03:59:24;;;;;;;0.30;0.30;;;;;;;24.42;50.95;100698.06;7393916;19;20018;-54
2024/02/17 04:01:59;;;;;;;1.20;0.68;;;;;;;22.81;53.81;100697.50;7392038;19;20013;-54
2024/02/17 04:04:26;;;;;;;0.55;0.28;;;;;;;22.23;56.29;100695.22;7397457;19;20014;-54
2024/02/17 04:06:52;;;;;;;0.10;0.10;;;;;;;22.88;53.99;100691.97;7393245;19;20015;-53
2024/02/17 04:09:18;;;;;;;5.18;0.82;;;;;;;22.37;57.78;100699.66;7396634;19;20011;-54
2024/02/17 04:11:44;;;;;;;0.40;0.40;;;;;;;23.16;54.10;100689.41;7393687;19;20022;-54
2024/02/17 04:14:10;;;;;;;0.17;0.17;;;;;;;22.84;55.93;100696.41;7397352;19;20011;-54
2024/02/17 04:16:36;;;;;;;0.15;0.15;;;;;;;22.06;57.40;100702.41;7392445;19;20015;-54
2024/02/17 04:19:02;;;;;;;1.52;0.40;;;;;;;21.64;59.76;100706.72;7393415;19;20011;-54
2024/02/17 04:21:28;;;;;;;0.15;0.10;;;;;;;21.60;61.28;100698.53;7396040;19;20070;-54
2024/02/17 04:23:55;;;;;;;0.55;0.50;;;;;;;22.79;57.44;100700.88;7395979;19;20025;-54
2024/02/17 04:26:21;;;;;;;12.52;0.60;;;;;;;21.24;62.74;100702.00;7393069;19;20034;-54
2024/02/17 04:28:47;;;;;;;0.75;0.50;;;;;;;21.28;64.25;100705.31;7391383;19;20019;-54
2024/02/17 04:31:13;;;;;;;0.20;0.20;;;;;;;23.19;56.29;100693.25;7393790;19;20029;-54
2024/02/17 04:33:39;;;;;;;0.68;0.10;;;;;;;22.96;56.88;100692.06;7400050;19;20018;-53
2024/02/17 04:36:06;;;;;;;1.58;0.75;;;;;;;22.90;56.14;100682.88;7399465;19;20032;-53
2024/02/17 04:38:33;;;;;;;1.17;0.38;;;;;;;23.48;54.55;100675.16;7399769;19;20022;-54
2024/02/17 04:40:59;;;;;;;1.13;0.25;;;;;;;23.06;55.61;100673.31;7398097;19;20388;-53
2024/02/17 04:43:26;;;;;;;0.57;0.28;;;;;;;22.74;56.52;100666.91;7402266;19;20462;-53
2024/02/17 04:45:52;;;;;;;0.30;0.20;;;;;;;24.02;54.18;100658.28;7400200;19;20014;-53
2024/02/17 04:48:18;;;;;;;1.35;0.68;;;;;;;24.15;51.52;100657.50;7399427;19;20335;-53
2024/02/17 04:50:44;;;;;;;0.10;0.10;;;;;;;24.52;51.06;100651.50;7402986;19;20013;-53
2024/02/17 04:53:10;;;;;;;2.78;0.65;;;;;;;24.43;51.22;100660.50;7401165;19;20014;-53
2024/02/17 04:55:36;;;;;;;0.90;0.43;;;;;;;25.13;49.29;100667.09;7399909;19;20034;-54
2024/02/17 04:58:03;;;;;;;1.95;0.22;;;;;;;24.26;51.88;100667.88;7400149;19;20017;-53
2024/02/17 05:00:29;;;;;;;2.33;0.73;;;;;;;29.73;42.98;100657.31;7398224;19;20074;-53
2024/02/17 05:02:55;;;;;;;1.75;0.47;;;;;;;30.99;38.55;100662.59;7400274;19;20011;-53
2024/02/17 05:05:21;;;;;;;0.57;0.57;;;;;;;26.81;44.86;100673.88;7397940;19;20019;-53
2024/02/17 05:07:47;;;;;;;0.57;0.40;;;;;;;26.51;45.66;100673.06;7399985;19;20007;-53
2024/02/17 05:10:13;;;;;;;4.95;1.65;;;;;;;26.51;45.95;100681.63;7398809;19;20007;-53
2024/02/17 05:12:40;;;;;;;1.27;0.30;;;;;;;25.74;46.96;100687.53;7399992;19;20018;-53
2024/02/17 05:15:07;;;;;;;0.75;0.40;;;;;;;27.19;44.57;100690.31;7398742;19;20082;-53
2024/02/17 05:17:35;;;;;;;0.30;0.20;;;;;;;28.26;42.82;100681.72;7399306;19;20027;-53
2024/02/17 05:20:01;;;;;;;1.25;0.45;;;;;;;28.60;42.24;100683.31;7399670;19;20489;-53
2024/02/17 05:22:28;;;;;;;1.38;0.40;;;;;;;30.12;40.04;100687.16;7398189;19;20018;-54
2024/02/17 05:24:54;;;;;;;0.10;0.10;;;;;;;30.64;39.03;100693.59;7398918;19;20066;-54
2024/02/17 05:27:20;;;;;;;1.65;0.85;;;;;;;30.52;38.92;100692.59;7398469;19;20018;-54
2024/02/17 05:29:46;;;;;;;1.00;0.52;;;;;;;29.85;39.73;100698.56;7398375;19;20455;-54
2024/02/17 05:32:12;;;;;;;0.90;0.38;;;;;;;29.35;40.18;100704.94;7398318;19;20014;-54
2024/02/17 05:34:39;;;;;;;3.65;0.60;;;;;;;30.44;39.27;100700.56;7401722;19;20520;-54
2024/02/17 05:37:06;;;;;;;0.68;0.68;;;;;;;29.46;39.67;100698.72;7397382;19;20011;-54
2024/02/17 05:39:32;;;;;;;0.55;0.20;;;;;;;29.28;39.58;100700.84;7397481;19;20028;-54
2024/02/17 05:41:59;;;;;;;0.17;0.17;;;;;;;29.75;39.40;100694.84;7396019;19;20340;-54
2024/02/17 05:44:26;;;;;;;1.05;0.25;;;;;;;29.66;38.77;100692.63;7399385;19;20417;-54
2024/02/17 05:46:52;;;;;;;1.08;0.82;;;;;;;26.97;42.17;100709.75;7395380;19;20014;-54
2024/02/17 05:49:22;;;;;;;2.30;0.85;;;;;;;27.66;41.72;100713.38;7397291;19;20435;-54
2024/02/17 05:51:49;;;;;;;1.27;0.68;;;;;;;25.65;45.30;100719.41;7395199;19;20014;-54
2024/02/17 05:54:19;;;;;;;0.45;0.43;;;;;;;24.27;47.42;100720.69;7399147;19;20010;-53
2024/02/17 05:56:45;;;;;;;0.50;0.37;;;;;;;23.04;51.49;100724.25;7396315;19;20343;-54
2024/02/17 05:59:13;;;;;;;6.97;1.20;;;;;;;23.04;52.67;100724.25;7396428;19;20227;-54
2024/02/17 06:01:41;;;;;;;1.48;0.35;;;;;;;23.61;52.79;100720.66;7394591;19;20399;-54
2024/02/17 06:04:08;;;;;;;0.65;0.52;;;;;;;23.02;54.80;100726.88;7399169;19;20033;-54
2024/02/17 06:06:35;;;;;;;0.60;0.30;;;;;;;22.52;56.44;100734.03;7393970;19;20068;-53
2024/02/17 06:09:01;;;;;;;4.95;0.80;;;;;;;22.91;56.80;100735.56;7394904;19;20031;-53
2024/02/17 06:11:28;;;;;;;0.95;0.38;;;;;;;23.03;56.20;100736.91;7392988;19;20029;-54
2024/02/17 06:13:54;;;;;;;1.33;0.65;;;;;;;23.97;54.37;100736.00;7395693;19;20011;-54
2024/02/17 06:16:20;;;;;;;1.60;0.60;;;;;;;22.98;56.20;100737.75;7392538;19;20463;-54
2024/02/17 06:21:32;;;;;;;0.57;0.30;;;;;;;22.77;58.57;100737.56;7395368;19;20382;-53
2024/02/17 06:23:58;;;;;;;0.93;0.30;;;;;;;22.46;59.83;100741.84;7399472;19;20021;-53
2024/02/17 06:26:28;;;;;;;2.17;1.00;;;;;;;22.93;59.10;100744.31;7397267;19;20007;-53
2024/02/17 06:28:56;;;;;;;0.90;0.70;;;;;;;22.97;59.63;100744.75;7396640;19;20011;-54
2024/02/17 06:31:23;;;;;;;4.32;0.52;;;;;;;22.85;60.34;100754.78;7396027;19;20033;-53
2024/02/17 06:33:50;;;;;;;1.90;1.13;;;;;;;23.07;59.98;100748.72;7398051;19;20014;-54
2024/02/17 06:36:16;;;;;;;2.88;0.70;;;;;;;23.21;58.50;100758.84;7395159;19;20021;-54
2024/02/17 06:38:42;;;;;;;2.83;0.68;;;;;;;25.14;54.45;100751.31;7395298;19;20032;-54
2024/02/17 06:41:10;;;;;;;0.68;0.52;;;;;;;25.04;52.67;100758.03;7394145;19;20343;-54
2024/02/17 06:43:37;;;;;;;0.63;0.47;;;;;;;27.36;47.85;100744.88;7395482;19;20034;-54
2024/02/17 06:46:07;;;;;;;8.68;1.13;;;;;;;27.17;47.08;100748.09;7398301;19;20019;-54
2024/02/17 06:48:33;;;;;;;1.58;0.70;;;;;;;25.46;49.54;100748.19;7396586;19;20447;-54
2024/02/17 06:50:59;;;;;;;2.38;0.80;;;;;;;24.51;53.00;100757.44;7399269;19;20043;-54
2024/02/17 06:53:25;;;;;;;1.52;0.40;;;;;;;23.73;54.96;100764.69;7394213;19;20070;-54
2024/02/17 06:55:51;;;;;;;1.65;0.52;;;;;;;23.95;54.47;100769.91;7392432;19;20049;-54
2024/02/17 06:58:17;;;;;;;6.07;0.98;;;;;;;24.02;54.86;100766.44;7394152;19;20017;-54
2024/02/17 07:00:44;;;;;;;4.25;0.82;;;;;;;24.85;52.82;100775.31;7394251;19;20037;-54
2024/02/17 07:03:10;;;;;;;2.30;0.57;;;;;;;23.51;57.13;100782.13;7395823;19;20014;-54
2024/02/17 07:05:38;;;;;;;1.63;0.93;;;;;;;23.03;58.27;100785.22;7395178;19;20712;-54
2024/02/17 07:08:04;;;;;;;3.40;1.15;;;;;;;25.10;53.60;100779.38;7394417;19;20376;-54
2024/02/17 07:10:31;;;;;;;1.23;0.65;;;;;;;23.37;57.29;100789.09;7393313;19;20014;-54
2024/02/17 07:12:57;;;;;;;0.90;0.82;;;;;;;22.89;59.09;100783.63;7394340;19;20036;-54
2024/02/17 07:15:26;;;;;;;2.28;0.35;;;;;;;22.74;60.50;100783.34;7392579;19;20018;-54
2024/02/17 07:17:52;;;;;;;0.38;0.38;;;;;;;24.18;57.71;100786.59;7392695;19;20094;-54
2024/02/17 07:20:18;;;;;;;0.65;0.30;;;;;;;22.57;61.69;100794.88;7393803;19;20051;-54
2024/02/17 07:22:46;;;;;;;2.15;1.27;;;;;;;25.24;53.99;100789.41;7394234;19;20009;-54
2024/02/17 07:25:12;;;;;;;0.80;0.40;;;;;;;26.09;51.11;100787.50;7395293;19;20022;-54
2024/02/17 07:27:39;;;;;;;1.85;1.15;;;;;;;25.02;52.12;100787.09;7393320;19;20011;-54
2024/02/17 07:30:06;;;;;;;2.88;0.88;;;;;;;28.06;46.28;100791.63;7394107;19;20019;-54
2024/02/17 07:32:32;;;;;;;1.33;0.57;;;;;;;29.19;46.13;100776.06;7393743;19;20014;-54
2024/02/17 07:34:58;;;;;;;2.75;0.82;;;;;;;34.66;35.46;100771.59;7394685;19;20006;-54
2024/02/17 07:37:24;;;;;;;2.45;1.45;;;;;;;36.29;33.22;100763.69;7393647;19;20074;-54
2024/02/17 07:39:50;;;;;;;0.45;0.28;;;;;;;36.45;31.88;100771.22;7393722;19;20014;-54
2024/02/17 07:42:16;;;;;;;4.80;0.93;;;;;;;37.76;29.96;100760.34;7398745;19;20074;-54
2024/02/17 07:44:45;;;;;;;9.98;1.38;;;;;;;38.09;29.20;100769.38;7393822;19;20082;-54
2024/02/17 07:47:14;;;;;;;8.95;1.48;;;;;;;38.34;28.60;100769.22;7392551;19;20343;-54
2024/02/17 07:49:41;;;;;;;1.98;0.40;;;;;;;38.32;28.52;100774.94;7394653;19;20007;-54
2024/02/17 07:52:07;;;;;;;3.92;0.70;;;;;;;38.38;27.98;100772.34;7397509;19;20022;-54
2024/02/17 07:54:33;;;;;;;10.10;1.67;;;;;;;38.60;27.65;100770.53;7393010;19;20021;-54
2024/02/17 07:56:59;;;;;;;1.67;0.82;;;;;;;38.56;27.49;100773.25;7394135;19;20015;-54
2024/02/17 07:59:25;;;;;;;1.17;0.85;;;;;;;38.63;27.26;100775.06;7394025;19;20018;-54
2024/02/17 08:01:51;;;;;;;1.20;1.10;;;;;;;38.62;27.26;100769.88;7394533;19;20010;-54
2024/02/17 08:04:17;;;;;;;6.10;1.13;;;;;;;38.90;27.41;100779.28;7392907;19;20010;-54
2024/02/17 08:06:44;;;;;;;1.95;1.20;;;;;;;39.10;26.94;100780.22;7392031;19;20025;-54
2024/02/17 08:09:10;;;;;;;9.27;1.13;;;;;;;39.20;26.38;100777.84;7394094;19;20019;-54
2024/02/17 08:11:36;;;;;;;2.90;0.80;;;;;;;39.27;26.30;100782.50;7393137;19;20007;-54
2024/02/17 08:14:04;;;;;;;2.15;1.38;;;;;;;39.22;26.37;100775.75;7396549;19;20331;-54
2024/02/17 08:16:30;;;;;;;6.00;1.23;;;;;;;39.58;26.21;100782.53;7393158;19;20031;-54
2024/02/17 08:18:56;;;;;;;2.53;0.88;;;;;;;39.83;26.14;100779.28;7393362;19;20022;-54
2024/02/17 08:21:24;;;;;;;5.57;1.83;;;;;;;39.51;25.96;100789.47;7393819;19;20471;-54
2024/02/17 08:23:51;;;;;;;3.50;0.73;;;;;;;39.31;26.52;100800.22;7391954;19;20419;-54
2024/02/17 08:26:17;;;;;;;4.68;1.23;;;;;;;39.53;25.94;100794.66;7392333;19;20118;-54
2024/02/17 08:28:43;;;;;;;0.65;0.65;;;;;;;39.45;25.81;100803.78;7393136;19;20084;-54
2024/02/17 08:31:09;;;;;;;4.00;1.02;;;;;;;39.33;25.67;100800.31;7390552;19;20100;-54
2024/02/17 08:33:36;;;;;;;3.22;1.08;;;;;;;39.17;26.20;100805.38;7393330;19;20017;-54
2024/02/17 08:36:02;;;;;;;2.88;1.40;;;;;;;39.54;25.75;100811.50;7392677;19;20015;-54
2024/02/17 08:38:28;;;;;;;0.57;0.40;;;;;;;39.20;25.85;100806.97;7393167;19;20014;-54
2024/02/17 08:40:55;;;;;;;2.03;0.82;;;;;;;38.21;26.72;100809.97;7391250;19;20007;-54
2024/02/17 08:43:21;;;;;;;4.28;0.88;;;;;;;38.32;26.76;100812.03;7390440;19;20025;-54
2024/02/17 09:56:15;;;;;;;6.00;2.33;;;;;;;38.42;34.31;100836.59;7269343;19;3066589;-55
2024/02/17 09:58:41;;;;;;;6.75;2.95;;;;;;;39.46;32.83;100833.69;7427231;19;20044;-55
2024/02/17 10:01:07;;;;;;;4.05;1.85;;;;;;;39.68;31.82;100838.41;7426286;19;20002;-55
2024/02/17 10:03:38;;;;;;;8.98;3.85;;;;;;;39.88;31.60;100839.31;7426359;19;20050;-55
2024/02/17 10:06:11;;;;;;;5.13;3.13;;;;;;;40.51;29.98;100833.34;7429480;19;20010;-55
2024/02/17 10:08:39;;;;;;;4.50;2.20;;;;;;;40.63;29.84;100839.72;7429036;19;20480;-55
2024/02/17 10:11:11;;;;;;;4.35;2.30;;;;;;;40.74;29.14;100844.56;7428585;19;20010;-55
2024/02/17 10:13:39;;;;;;;4.43;2.17;;;;;;;40.76;28.60;100836.59;7428927;19;20025;-55
2024/02/17 10:16:15;;;;;;;8.43;1.85;;;;;;;41.13;28.27;100841.78;7428448;19;20014;-55
2024/02/17 10:18:43;;;;;;;3.75;1.75;;;;;;;41.34;28.09;100841.19;7428914;19;20150;-55
2024/02/17 10:21:10;;;;;;;3.47;1.95;;;;;;;41.58;27.94;100847.94;7428465;19;20011;-56
2024/02/17 10:23:36;;;;;;;1.50;0.90;;;;;;;41.76;27.28;100838.41;7428786;19;20014;-56
2024/02/17 10:26:03;;;;;;;0.80;0.50;;;;;;;41.86;27.16;100859.25;7428583;19;20018;-55
2024/02/17 10:28:29;;;;;;;3.28;1.27;;;;;;;42.01;26.61;100853.25;7427991;19;20461;-55
2024/02/17 10:30:56;;;;;;;6.50;1.70;;;;;;;41.76;27.02;100844.25;7428112;19;20017;-56
2024/02/17 10:33:24;;;;;;;2.28;0.60;;;;;;;41.35;27.36;100848.53;7428395;19;20014;-56
2024/02/17 10:35:50;;;;;;;2.17;0.45;;;;;;;41.09;27.27;100849.63;7426438;19;20026;-56
2024/02/17 10:38:17;;;;;;;7.97;1.30;;;;;;;41.09;27.30;100835.78;7427737;19;20390;-56
2024/02/17 10:40:43;;;;;;;1.20;0.55;;;;;;;40.77;27.24;100837.38;7428499;19;20340;-56
2024/02/17 10:43:09;;;;;;;1.27;1.13;;;;;;;40.65;27.64;100834.69;7428395;19;20018;-56
2024/02/17 10:45:36;;;;;;;1.45;0.50;;;;;;;40.81;27.57;100837.53;7425336;19;20014;-56
2024/02/17 10:48:04;;;;;;;1.35;1.00;;;;;;;40.67;27.11;100828.94;7428333;19;20033;-56
2024/02/17 10:50:34;;;;;;;0.50;0.50;;;;;;;40.87;27.30;100828.31;7427358;19;20010;-55
2024/02/17 10:53:18;;;;;;;2.97;0.73;;;;;;;40.80;27.09;100841.88;7428038;19;20010;-56
2024/02/17 10:55:49;;;;;;;2.03;0.43;;;;;;;40.64;27.33;100836.13;7415614;19;20042;-56
2024/02/17 10:58:16;;;;;;;0.75;0.45;;;;;;;41.26;27.08;100835.00;7399370;19;20028;-56
2024/02/17 11:00:47;;;;;;;2.67;1.83;;;;;;;41.09;27.08;100838.69;7398935;19;20931;-56
2024/02/17 11:03:34;;;;;;;1.92;0.93;;;;;;;40.70;27.08;100841.44;7398708;19;20021;-56
2024/02/17 11:06:04;;;;;;;4.32;0.93;;;;;;;40.66;26.69;100838.38;7399162;19;20358;-56
2024/02/17 11:08:34;;;;;;;2.47;0.57;;;;;;;40.78;27.10;100838.88;7398796;19;20018;-56
2024/02/17 11:11:25;;;;;;;1.00;0.70;;;;;;;40.01;27.51;100835.56;7398642;19;20018;-56
2024/02/17 11:13:51;;;;;;;;;;;;;;;39.86;27.72;100836.31;7398768;19;20030;-56
2024/02/17 11:16:19;;;;;;;1.10;0.35;;;;;;;34.16;32.77;100843.41;7400692;19;19914;-56
2024/02/17 11:18:52;;;;;;;1.42;0.40;;;;;;;33.34;34.40;100855.63;7398142;19;20494;-56
2024/02/17 11:21:25;;;;;;;2.70;0.30;;;;;;;32.89;35.45;100851.59;7398372;19;20021;-56
2024/02/17 11:23:52;;;;;;;1.05;0.28;;;;;;;33.02;35.23;100848.25;7397382;19;20286;-56
2024/02/17 11:26:20;;;;;;;8.35;1.42;;;;;;;30.70;38.59;100849.38;7397818;19;20010;-56
2024/02/17 11:28:49;;;;;;;5.90;1.20;;;;;;;31.42;38.78;100846.69;7398042;19;20014;-56
2024/02/17 11:31:17;;;;;;;2.15;0.93;;;;;;;31.30;39.03;100845.72;7397748;19;20380;-56
2024/02/17 11:33:47;;;;;;;17.67;2.90;;;;;;;33.34;37.05;100852.72;7397549;19;20327;-56
2024/02/17 11:36:14;;;;;;;4.40;2.17;;;;;;;32.74;37.09;100852.69;7396909;19;20015;-56
2024/02/17 11:38:42;;;;;;;11.77;2.53;;;;;;;34.66;35.03;100840.28;7397702;19;20028;-56
2024/02/17 11:41:13;;;;;;;8.13;3.00;;;;;;;34.18;35.38;100831.97;7397759;19;20018;-56
2024/02/17 11:43:40;;;;;;;12.00;3.03;;;;;;;34.36;34.97;100841.91;7397236;19;20018;-56
2024/02/17 11:46:06;;;;;;;4.40;2.30;;;;;;;33.66;36.14;100837.72;7398816;19;20014;-56
2024/02/17 11:48:32;;;;;;;7.03;1.55;;;;;;;33.19;36.71;100827.09;7397263;19;20015;-56
2024/02/17 11:51:18;;;;;;;6.55;1.67;;;;;;;33.86;36.33;100827.59;7397199;19;20094;-56
2024/02/17 11:53:48;;;;;;;4.13;1.27;;;;;;;32.94;37.62;100823.78;7397328;19;20010;-56
2024/02/17 11:56:15;;;;;;;5.93;0.80;;;;;;;32.98;37.51;100819.06;7397513;19;20018;-56
2024/02/17 11:58:43;;;;;;;7.75;1.90;;;;;;;33.35;37.37;100814.56;7397750;19;20049;-56
2024/02/17 12:01:13;;;;;;;2.20;0.88;;;;;;;32.11;38.11;100814.66;7394985;19;20359;-56
2024/02/17 12:03:42;;;;;;;7.30;1.25;;;;;;;31.19;39.68;100808.84;7393975;19;20037;-56
2024/02/17 12:06:11;;;;;;;1.42;0.50;;;;;;;33.30;37.37;100803.34;7391142;19;20010;-56
2024/02/17 12:08:40;;;;;;;2.85;0.45;;;;;;;32.67;37.15;100798.75;7390700;19;20014;-56
2024/02/17 12:11:07;;;;;;;1.98;1.10;;;;;;;32.28;37.88;100800.09;7392000;19;20017;-56
2024/02/17 12:13:34;;;;;;;1.60;0.60;;;;;;;29.82;42.25;100794.50;7392422;19;20018;-56
2024/02/17 12:16:08;;;;;;;3.13;0.98;;;;;;;28.30;46.78;100796.72;7395637;19;20070;-56
2024/02/17 12:18:37;;;;;;;1.50;1.00;;;;;;;29.32;46.03;100793.00;7394118;19;20081;-56
2024/02/17 12:21:07;;;;;;;1.50;0.77;;;;;;;29.14;48.21;100788.50;7393252;19;20490;-56
2024/02/17 12:23:39;;;;;;;5.72;0.63;;;;;;;28.64;49.45;100795.47;7391716;19;20482;-56
2024/02/17 12:26:06;;;;;;;3.03;0.85;;;;;;;28.48;49.46;100794.72;7396373;19;20010;-56
2024/02/17 12:28:33;;;;;;;0.88;0.70;;;;;;;28.90;49.48;100789.22;7391480;19;20066;-56
2024/02/17 12:30:59;;;;;;;0.65;0.40;;;;;;;28.96;49.54;100792.63;7391764;19;20036;-56
2024/02/17 12:33:26;;;;;;;0.57;0.30;;;;;;;29.46;48.39;100791.34;7391937;19;20015;-56
2024/02/17 12:35:53;;;;;;;1.27;0.60;;;;;;;28.36;51.30;100785.81;7392313;19;20125;-56
2024/02/17 12:38:21;;;;;;;1.90;0.77;;;;;;;28.21;52.56;100777.25;7391985;19;20010;-56